Time;durP1;ratioP1;P1;durP2;ratioP2;P2;SDS_P1;SDS_P2;PMS_P1;PMS_P2;Temp;Humidity;BMP_temperature;BMP_pressure;BME280_temperature;BME280_humidity;BME280_pressure;Samples;Min_cycle;Max_cycle;Signal;HPM_P1;HPM_P2
2023/09/09 00:02:28;;;;;;;11.90;8.70;;;;;;;17.97;80.79;98378.74;106965;1278;25176;-77
2023/09/09 00:04:56;;;;;;;11.60;10.00;;;;;;;18.00;81.11;98375.17;106732;1274;24359;-77
2023/09/09 00:07:24;;;;;;;12.90;9.80;;;;;;;18.00;80.99;98373.15;106920;1276;22541;-77
2023/09/09 00:09:52;;;;;;;11.30;9.90;;;;;;;17.97;81.26;98368.59;107004;1272;25528;-77
2023/09/09 00:12:20;;;;;;;10.90;9.60;;;;;;;17.93;81.12;98370.63;107021;1270;23892;-76
2023/09/09 00:14:48;;;;;;;14.10;10.40;;;;;;;17.92;81.48;98369.74;107004;1263;22653;-76
2023/09/09 00:17:16;;;;;;;11.50;9.90;;;;;;;17.90;81.62;98367.19;106635;1275;25402;-76
2023/09/09 00:19:44;;;;;;;15.90;9.30;;;;;;;17.88;81.38;98363.14;106609;1272;25346;-76
2023/09/09 00:22:12;;;;;;;13.60;9.40;;;;;;;17.88;81.71;98367.73;106584;1266;26285;-76
2023/09/09 00:24:40;;;;;;;13.10;10.00;;;;;;;17.87;81.86;98367.39;106757;1270;25300;-77
2023/09/09 00:27:08;;;;;;;13.10;11.80;;;;;;;17.83;81.32;98368.80;107024;1263;22573;-74
2023/09/09 00:29:36;;;;;;;13.50;11.40;;;;;;;17.64;80.86;98365.30;106479;1277;200275;-75
2023/09/09 00:32:04;;;;;;;12.80;10.50;;;;;;;17.56;81.84;98361.89;106742;1278;22543;-76
2023/09/09 00:34:34;;;;;;;15.30;10.10;;;;;;;17.53;82.20;98358.64;106802;1277;24046;-76
2023/09/09 00:37:03;;;;;;;12.30;9.40;;;;;;;17.53;82.09;98358.96;106743;1278;22610;-77
2023/09/09 00:39:32;;;;;;;16.20;10.50;;;;;;;17.52;81.84;98360.25;106603;1273;22527;-77
2023/09/09 00:42:00;;;;;;;13.60;11.30;;;;;;;17.51;81.84;98360.16;106883;1277;24245;-76
2023/09/09 00:44:28;;;;;;;11.60;10.40;;;;;;;17.50;81.95;98358.48;106690;1273;25311;-76
2023/09/09 00:46:58;;;;;;;13.00;10.60;;;;;;;17.47;81.95;98358.30;106711;1277;24234;-76
2023/09/09 00:49:26;;;;;;;13.70;11.10;;;;;;;17.44;82.54;98355.23;106586;1267;22533;-76
2023/09/09 00:51:55;;;;;;;14.40;11.50;;;;;;;17.43;82.51;98355.34;106416;1265;24209;-76
2023/09/09 00:54:24;;;;;;;12.10;10.70;;;;;;;17.32;81.76;98355.92;106663;1264;22548;-76
2023/09/09 00:56:52;;;;;;;13.10;11.30;;;;;;;17.21;82.19;98358.40;106689;1262;24254;-76
2023/09/09 00:59:21;;;;;;;12.70;11.20;;;;;;;17.09;81.61;98357.48;106683;1273;24384;-76
2023/09/09 01:01:49;;;;;;;11.00;9.20;;;;;;;16.99;82.61;98357.41;106647;1276;25527;-76
2023/09/09 01:04:17;;;;;;;11.70;10.50;;;;;;;16.99;83.17;98359.05;106751;1270;25534;-76
2023/09/09 01:06:47;;;;;;;13.00;10.80;;;;;;;16.94;82.89;98359.14;106856;1278;22756;-76
2023/09/09 01:09:15;;;;;;;11.50;10.40;;;;;;;16.91;83.43;98356.95;106465;1263;22662;-76
2023/09/09 01:11:43;;;;;;;11.90;10.20;;;;;;;16.92;83.86;98357.11;106713;1277;22551;-76
2023/09/09 01:14:12;;;;;;;10.50;9.40;;;;;;;16.94;83.88;98357.77;106973;1269;22640;-76
2023/09/09 01:16:42;;;;;;;11.00;9.80;;;;;;;17.00;83.86;98357.22;106779;1269;22597;-75
2023/09/09 01:19:14;;;;;;;11.30;10.20;;;;;;;17.08;83.75;98360.23;106659;1275;22880;-76
2023/09/09 01:21:45;;;;;;;11.80;10.60;;;;;;;17.15;83.50;98358.95;106687;1275;22662;-75
2023/09/09 01:24:15;;;;;;;13.00;11.40;;;;;;;17.18;83.25;98358.36;106533;1275;26401;-76
2023/09/09 01:26:44;;;;;;;14.80;12.30;;;;;;;17.19;83.32;98350.70;106612;1269;22750;-76
2023/09/09 01:29:12;;;;;;;12.50;11.00;;;;;;;17.21;83.45;98348.98;106801;1271;22518;-76
2023/09/09 01:31:41;;;;;;;11.90;10.70;;;;;;;17.24;83.70;98349.56;106671;1257;23905;-76
2023/09/09 01:34:09;;;;;;;13.10;10.90;;;;;;;17.27;83.00;98348.91;106719;1275;25328;-76
2023/09/09 01:36:38;;;;;;;12.40;11.10;;;;;;;17.24;82.86;98346.95;107074;1277;22531;-77
2023/09/09 01:39:07;;;;;;;13.40;11.40;;;;;;;17.23;83.53;98349.46;106529;1277;22521;-77
2023/09/09 01:41:35;;;;;;;15.00;11.10;;;;;;;17.25;83.69;98351.41;106696;1272;22539;-76
2023/09/09 01:44:03;;;;;;;12.30;11.10;;;;;;;17.25;83.39;98349.05;106487;1278;23128;-76
2023/09/09 01:46:31;;;;;;;14.20;11.50;;;;;;;17.20;83.35;98351.77;107005;1277;22580;-76
2023/09/09 01:49:03;;;;;;;14.80;10.50;;;;;;;17.19;83.76;98348.44;106709;1277;22768;-76
2023/09/09 01:51:32;;;;;;;13.70;12.30;;;;;;;17.21;83.74;98344.71;106660;1259;25832;-76
2023/09/09 01:54:00;;;;;;;12.30;11.10;;;;;;;17.22;83.47;98344.27;106668;1272;22778;-76
2023/09/09 01:56:28;;;;;;;12.10;10.90;;;;;;;17.20;83.28;98344.50;106622;1277;23929;-76
2023/09/09 01:58:56;;;;;;;12.50;11.20;;;;;;;17.20;82.97;98342.86;106455;1278;22570;-77
2023/09/09 02:01:24;;;;;;;12.80;9.70;;;;;;;17.20;82.61;98346.67;106835;1277;22524;-74
2023/09/09 02:03:52;;;;;;;11.20;10.00;;;;;;;17.22;82.61;98344.98;106504;1272;22465;-76
2023/09/09 02:06:22;;;;;;;12.20;10.80;;;;;;;17.23;82.60;98346.88;106648;1275;22767;-76
2023/09/09 02:08:50;;;;;;;12.70;10.40;;;;;;;17.22;82.68;98347.62;106935;1275;22662;-76
2023/09/09 02:11:19;;;;;;;13.30;10.20;;;;;;;17.20;82.80;98346.92;106627;1263;22614;-76
2023/09/09 02:13:47;;;;;;;11.10;10.00;;;;;;;17.17;82.85;98343.55;106410;1269;24275;-75
2023/09/09 02:16:17;;;;;;;11.60;9.60;;;;;;;17.15;83.25;98343.64;106475;1276;25353;-75
2023/09/09 02:18:45;;;;;;;11.80;10.10;;;;;;;17.18;83.91;98348.58;106606;1263;22636;-76
2023/09/09 02:21:13;;;;;;;11.20;9.20;;;;;;;17.24;83.93;98351.67;106674;1272;24338;-76
2023/09/09 02:23:42;;;;;;;11.10;9.40;;;;;;;17.27;84.11;98350.77;106533;1278;22658;-75
2023/09/09 02:26:10;;;;;;;11.70;10.10;;;;;;;17.28;84.16;98352.36;106699;1271;24418;-76
2023/09/09 02:28:38;;;;;;;10.40;9.30;;;;;;;17.25;83.56;98346.64;106787;1272;24377;-75
2023/09/09 02:31:06;;;;;;;10.10;9.10;;;;;;;17.24;83.72;98347.23;106707;1274;24225;-76
2023/09/09 02:33:35;;;;;;;15.20;9.40;;;;;;;17.24;83.51;98346.23;106736;1256;24379;-75
2023/09/09 02:36:03;;;;;;;10.90;9.80;;;;;;;17.23;83.34;98346.65;106617;1268;22531;-75
2023/09/09 02:38:32;;;;;;;11.20;10.00;;;;;;;17.19;83.59;98345.47;106744;1277;25406;-75
2023/09/09 02:40:59;;;;;;;11.40;10.00;;;;;;;17.12;83.61;98346.01;106732;1277;24253;-76
2023/09/09 02:43:27;;;;;;;11.00;10.00;;;;;;;17.00;83.41;98340.47;106594;1272;24035;-76
2023/09/09 02:45:55;;;;;;;11.50;9.80;;;;;;;16.88;83.61;98340.70;106523;1278;25582;-76
2023/09/09 02:48:23;;;;;;;10.90;9.40;;;;;;;16.84;83.86;98341.47;106705;1278;22520;-76
2023/09/09 02:50:51;;;;;;;10.00;9.00;;;;;;;16.85;83.96;98338.64;106727;1272;23880;-76
2023/09/09 02:53:20;;;;;;;12.10;10.50;;;;;;;16.86;84.24;98340.56;106698;1262;25396;-76
2023/09/09 02:55:48;;;;;;;10.80;9.70;;;;;;;16.87;84.83;98339.52;106745;1278;24198;-76
2023/09/09 02:58:16;;;;;;;13.10;10.10;;;;;;;16.90;85.56;98341.79;106712;1278;22598;-77
2023/09/09 03:00:44;;;;;;;10.70;9.60;;;;;;;16.84;85.15;98337.75;106725;1277;25287;-76
2023/09/09 03:03:12;;;;;;;12.10;10.00;;;;;;;16.78;84.66;98341.97;106755;1277;23882;-76
2023/09/09 03:05:41;;;;;;;11.20;9.40;;;;;;;16.69;85.11;98341.29;106509;1277;25454;-76
2023/09/09 03:08:09;;;;;;;10.50;9.50;;;;;;;16.70;85.06;98344.64;106788;1278;25284;-76
2023/09/09 03:10:37;;;;;;;14.10;9.70;;;;;;;16.75;85.10;98348.11;106559;1277;23355;-77
2023/09/09 03:13:05;;;;;;;12.20;11.10;;;;;;;16.78;84.94;98347.55;106853;1277;25515;-76
2023/09/09 03:15:33;;;;;;;10.80;9.80;;;;;;;16.77;84.87;98347.93;106802;1262;22533;-76
2023/09/09 03:18:01;;;;;;;10.60;9.40;;;;;;;16.75;84.43;98349.98;106553;1277;22531;-76
2023/09/09 03:20:29;;;;;;;11.70;10.50;;;;;;;16.70;84.76;98353.41;106501;1278;22657;-77
2023/09/09 03:22:59;;;;;;;13.80;11.10;;;;;;;16.70;84.87;98355.67;106629;1277;26619;-77
2023/09/09 03:25:27;;;;;;;10.60;9.50;;;;;;;16.69;84.44;98355.88;107095;1276;24258;-77
2023/09/09 03:27:55;;;;;;;12.10;10.90;;;;;;;16.68;84.42;98353.75;106767;1262;24263;-76
2023/09/09 03:30:23;;;;;;;12.30;11.00;;;;;;;16.60;84.10;98352.23;106728;1278;23885;-76
2023/09/09 03:32:51;;;;;;;13.00;11.20;;;;;;;16.58;84.91;98352.33;106708;1267;22640;-76
2023/09/09 03:35:19;;;;;;;12.50;11.00;;;;;;;16.61;84.67;98357.26;106722;1262;22636;-76
2023/09/09 03:37:47;;;;;;;13.60;10.50;;;;;;;16.58;84.08;98356.54;106594;1277;24377;-76
2023/09/09 03:40:15;;;;;;;15.00;10.50;;;;;;;16.52;84.02;98354.48;106604;1277;24035;-76
2023/09/09 03:42:44;;;;;;;11.40;10.20;;;;;;;16.51;84.15;98360.73;106737;1277;24330;-76
2023/09/09 03:45:12;;;;;;;12.30;11.00;;;;;;;16.49;84.26;98358.96;106656;1263;22546;-76
2023/09/09 03:47:41;;;;;;;13.70;12.30;;;;;;;16.46;83.95;98354.95;106733;1277;22576;-78
2023/09/09 03:50:10;;;;;;;12.90;11.50;;;;;;;16.42;84.29;98353.81;106940;1264;25261;-76
2023/09/09 03:52:38;;;;;;;14.40;11.30;;;;;;;16.41;84.26;98358.01;106999;1277;22641;-77
2023/09/09 03:55:06;;;;;;;13.00;11.60;;;;;;;16.43;84.13;98359.86;106518;1268;25580;-77
2023/09/09 03:57:34;;;;;;;14.20;10.50;;;;;;;16.46;84.12;98364.58;106827;1263;22652;-76
2023/09/09 04:00:03;;;;;;;14.90;11.20;;;;;;;16.47;83.86;98361.73;107008;1262;22559;-76
2023/09/09 04:02:39;;;;;;;14.30;12.90;;;;;;;16.43;83.53;98365.14;106754;1262;22529;-76
2023/09/09 04:05:10;;;;;;;16.30;11.90;;;;;;;16.37;83.63;98363.58;107010;1262;22524;-76
2023/09/09 04:07:43;;;;;;;15.70;11.50;;;;;;;16.32;83.46;98365.09;106497;1265;22530;-76
2023/09/09 04:10:13;;;;;;;13.10;11.50;;;;;;;16.27;83.34;98364.41;106727;1254;22521;-76
2023/09/09 04:12:41;;;;;;;14.90;12.20;;;;;;;16.20;83.30;98370.98;106654;1278;25358;-76
2023/09/09 04:15:13;;;;;;;13.90;11.60;;;;;;;16.17;84.28;98372.16;106492;1277;22542;-76
2023/09/09 04:17:41;;;;;;;13.10;11.50;;;;;;;16.22;84.73;98369.81;107023;1277;22578;-76
2023/09/09 04:20:09;;;;;;;13.80;10.90;;;;;;;16.25;84.93;98374.21;107068;1272;22525;-76
2023/09/09 04:22:38;;;;;;;12.90;11.50;;;;;;;16.30;84.37;98371.23;106821;1277;23137;-76
2023/09/09 04:25:06;;;;;;;12.40;11.00;;;;;;;16.32;83.99;98377.10;106724;1262;26034;-76
2023/09/09 04:27:35;;;;;;;13.50;11.10;;;;;;;16.33;84.05;98374.23;106839;1278;22770;-76
2023/09/09 04:30:03;;;;;;;11.80;10.60;;;;;;;16.34;83.82;98373.02;107027;1262;24051;-76
2023/09/09 04:32:32;;;;;;;13.30;11.90;;;;;;;16.28;83.48;98378.47;106791;1265;22541;-76
2023/09/09 04:35:00;;;;;;;13.20;11.80;;;;;;;16.26;83.76;98383.77;106949;1262;24356;-76
2023/09/09 04:37:30;;;;;;;13.80;10.80;;;;;;;16.28;83.73;98383.75;106823;1277;22539;-76
2023/09/09 04:39:59;;;;;;;12.10;10.70;;;;;;;16.33;83.64;98380.83;106890;1267;22513;-76
2023/09/09 04:42:27;;;;;;;11.20;10.10;;;;;;;16.33;83.50;98379.45;106931;1278;24237;-77
2023/09/09 04:44:56;;;;;;;11.90;10.60;;;;;;;16.34;83.54;98382.13;106955;1270;22519;-77
2023/09/09 04:47:25;;;;;;;11.70;10.50;;;;;;;16.37;83.88;98379.38;107049;1262;22805;-77
2023/09/09 04:49:56;;;;;;;10.50;9.50;;;;;;;16.41;83.77;98382.16;106890;1277;23318;-76
2023/09/09 04:52:24;;;;;;;11.70;9.70;;;;;;;16.46;83.85;98384.14;106835;1265;25391;-76
2023/09/09 04:54:52;;;;;;;11.50;10.20;;;;;;;16.53;83.95;98386.55;106601;1264;24237;-76
2023/09/09 04:57:20;;;;;;;12.10;10.20;;;;;;;16.60;83.77;98382.94;107043;1262;25288;-76
2023/09/09 04:59:49;;;;;;;11.60;10.50;;;;;;;16.64;83.65;98378.50;106693;1265;25339;-76
2023/09/09 05:02:17;;;;;;;11.90;10.70;;;;;;;16.62;83.52;98382.59;106735;1278;24046;-76
2023/09/09 05:04:45;;;;;;;11.80;10.60;;;;;;;16.61;83.69;98385.16;106630;1265;24331;-76
2023/09/09 05:07:13;;;;;;;12.10;10.30;;;;;;;16.63;83.70;98383.22;106615;1262;22539;-76
2023/09/09 05:09:42;;;;;;;10.70;9.60;;;;;;;16.65;83.64;98382.09;106756;1278;22534;-76
2023/09/09 05:12:10;;;;;;;11.30;9.60;;;;;;;16.70;83.98;98384.77;106743;1272;22542;-75
2023/09/09 05:14:38;;;;;;;11.00;9.70;;;;;;;16.75;84.20;98388.16;106861;1266;22575;-75
2023/09/09 05:17:07;;;;;;;20.70;10.80;;;;;;;16.80;84.12;98386.70;106573;1263;23041;-76
2023/09/09 05:19:35;;;;;;;12.20;10.90;;;;;;;16.84;84.14;98388.77;106667;1278;22534;-76
2023/09/09 05:22:03;;;;;;;14.30;10.80;;;;;;;16.87;84.27;98384.55;106579;1277;25394;-75
2023/09/09 05:24:31;;;;;;;11.50;9.10;;;;;;;16.92;84.59;98388.68;106735;1277;22631;-80
2023/09/09 05:27:03;;;;;;;14.80;13.30;;;;;;;17.01;84.59;98385.23;106740;1270;22519;-73
2023/09/09 05:29:31;;;;;;;17.40;13.70;;;;;;;16.97;83.84;98385.80;106523;1270;22639;-73
2023/09/09 05:31:59;;;;;;;16.10;14.40;;;;;;;16.83;83.61;98388.19;106740;1277;22530;-73
2023/09/09 05:34:27;;;;;;;17.00;15.20;;;;;;;16.70;83.95;98386.16;106748;1277;22565;-73
2023/09/09 05:36:55;;;;;;;16.90;15.20;;;;;;;16.55;84.23;98388.19;106589;1276;22654;-73
2023/09/09 05:39:24;;;;;;;16.50;14.10;;;;;;;16.45;84.52;98385.05;106614;1272;22661;-73
2023/09/09 05:41:52;;;;;;;16.20;14.50;;;;;;;16.38;84.74;98384.14;106643;1278;22633;-74
2023/09/09 05:44:20;;;;;;;17.00;15.10;;;;;;;16.36;85.04;98385.61;106629;1272;22651;-74
2023/09/09 05:46:48;;;;;;;17.30;14.60;;;;;;;16.36;85.46;98385.77;106787;1268;22692;-73
2023/09/09 05:49:16;;;;;;;17.20;15.10;;;;;;;16.36;85.62;98386.48;106534;1277;22760;-75
2023/09/09 05:51:59;;;;;;;18.20;16.30;;;;;;;16.33;85.95;98386.36;106539;1268;24219;-74
2023/09/09 05:54:27;;;;;;;18.20;16.50;;;;;;;16.32;86.22;98384.54;106597;1273;25328;-74
2023/09/09 05:56:56;;;;;;;17.30;15.50;;;;;;;16.37;86.46;98390.15;106670;1277;25485;-74
2023/09/09 05:59:25;;;;;;;19.20;15.90;;;;;;;16.43;86.64;98389.23;106733;1263;22540;-74
2023/09/09 06:01:53;;;;;;;19.30;17.10;;;;;;;16.52;87.15;98394.04;106607;1278;22526;-74
2023/09/09 06:04:21;;;;;;;18.80;16.80;;;;;;;16.62;87.48;98393.30;106546;1276;22541;-73
2023/09/09 06:06:50;;;;;;;21.00;18.90;;;;;;;16.71;87.73;98393.29;106732;1271;22734;-74
2023/09/09 06:09:18;;;;;;;20.90;18.70;;;;;;;16.79;88.25;98391.47;106608;1272;22732;-74
2023/09/09 06:11:46;;;;;;;20.70;17.90;;;;;;;16.90;88.29;98389.39;106518;1270;25485;-75
2023/09/09 06:14:15;;;;;;;21.20;18.90;;;;;;;17.05;88.39;98393.19;106665;1277;22598;-74
2023/09/09 06:16:43;;;;;;;21.40;19.20;;;;;;;17.20;88.63;98393.52;106764;1277;22995;-74
2023/09/09 06:19:11;;;;;;;19.20;17.30;;;;;;;17.34;88.72;98395.16;106696;1266;24348;-74
2023/09/09 06:21:41;;;;;;;21.00;18.80;;;;;;;17.46;89.14;98399.59;106750;1277;24371;-74
2023/09/09 06:24:12;;;;;;;18.90;16.70;;;;;;;17.56;89.07;98405.23;106916;1266;22962;-74
2023/09/09 06:26:41;;;;;;;21.40;17.90;;;;;;;17.65;89.20;98408.07;106825;1273;24371;-74
2023/09/09 06:29:09;;;;;;;18.50;16.50;;;;;;;17.76;89.21;98412.52;106728;1274;22524;-74
2023/09/09 06:31:37;;;;;;;20.60;17.70;;;;;;;17.85;89.37;98417.34;106766;1272;22548;-74
2023/09/09 06:34:05;;;;;;;19.90;18.00;;;;;;;17.97;89.66;98423.42;106601;1275;22531;-74
2023/09/09 06:36:34;;;;;;;20.60;18.60;;;;;;;18.06;89.75;98427.52;106769;1270;22651;-75
2023/09/09 06:39:03;;;;;;;20.60;18.50;;;;;;;18.15;89.84;98426.20;106717;1256;22606;-74
2023/09/09 06:41:31;;;;;;;22.10;18.10;;;;;;;18.28;89.99;98422.73;106786;1270;24449;-75
2023/09/09 06:44:00;;;;;;;21.90;19.00;;;;;;;18.41;90.06;98430.54;106712;1275;22538;-75
2023/09/09 06:46:29;;;;;;;22.90;20.40;;;;;;;18.57;90.24;98432.22;106733;1272;24249;-73
2023/09/09 06:48:57;;;;;;;21.90;19.80;;;;;;;18.70;90.32;98431.52;106728;1278;24266;-74
2023/09/09 06:51:25;;;;;;;22.20;19.80;;;;;;;18.81;90.32;98439.55;106738;1277;22539;-74
2023/09/09 06:53:53;;;;;;;20.90;16.80;;;;;;;18.91;90.52;98433.08;106777;1277;24257;-74
2023/09/09 06:56:21;;;;;;;18.50;16.50;;;;;;;19.01;90.43;98438.15;106744;1277;25535;-74
2023/09/09 06:58:49;;;;;;;17.80;16.10;;;;;;;19.13;90.50;98438.00;106774;1278;22640;-74
2023/09/09 07:01:17;;;;;;;19.10;16.10;;;;;;;19.27;90.38;98443.98;106707;1263;24272;-75
2023/09/09 07:03:46;;;;;;;17.90;15.70;;;;;;;19.43;90.36;98443.05;106710;1278;24035;-75
2023/09/09 07:06:15;;;;;;;17.60;16.00;;;;;;;19.54;90.28;98446.20;106717;1254;22517;-76
2023/09/09 07:08:43;;;;;;;18.20;15.30;;;;;;;19.64;90.08;98440.97;106714;1277;24270;-76
2023/09/09 07:11:12;;;;;;;17.30;14.70;;;;;;;19.77;90.08;98443.95;106892;1278;23231;-75
2023/09/09 07:13:40;;;;;;;17.90;16.20;;;;;;;19.90;90.06;98444.11;106900;1275;25616;-76
2023/09/09 07:16:08;;;;;;;17.50;15.10;;;;;;;20.05;89.66;98449.83;106885;1270;22910;-74
2023/09/09 07:18:36;;;;;;;19.90;15.90;;;;;;;20.15;89.59;98445.57;106519;1269;26656;-74
2023/09/09 07:21:04;;;;;;;16.80;15.10;;;;;;;20.28;89.41;98445.45;106814;1262;23006;-74
2023/09/09 07:23:33;;;;;;;16.70;14.40;;;;;;;20.39;89.38;98443.49;106764;1277;22643;-75
2023/09/09 07:26:01;;;;;;;15.60;13.50;;;;;;;20.50;89.31;98444.49;106709;1266;22761;-74
2023/09/09 07:28:32;;;;;;;15.20;13.70;;;;;;;20.61;89.13;98443.71;106826;1277;24380;-75
2023/09/09 07:31:02;;;;;;;15.60;13.80;;;;;;;20.70;88.70;98446.36;106768;1261;22677;-74
2023/09/09 07:33:30;;;;;;;15.90;13.60;;;;;;;20.77;88.57;98446.77;106840;1277;23157;-74
2023/09/09 07:35:59;;;;;;;16.40;13.90;;;;;;;20.86;88.17;98447.55;106652;1277;22524;-75
2023/09/09 07:38:27;;;;;;;14.50;12.70;;;;;;;20.95;88.31;98446.52;106865;1277;25415;-76
2023/09/09 07:40:58;;;;;;;14.60;11.60;;;;;;;21.06;87.92;98448.81;106824;1278;22524;-74
2023/09/09 07:43:27;;;;;;;14.10;11.70;;;;;;;21.20;87.85;98449.07;106890;1277;25229;-75
2023/09/09 07:45:55;;;;;;;12.80;11.50;;;;;;;21.31;87.51;98445.42;106793;1275;24387;-75
2023/09/09 07:48:24;;;;;;;14.90;11.40;;;;;;;21.38;86.61;98444.66;106793;1277;22540;-75
2023/09/09 07:50:54;;;;;;;18.00;11.60;;;;;;;21.44;86.45;98442.14;106771;1277;23129;-75
2023/09/09 07:53:23;;;;;;;12.70;11.40;;;;;;;21.54;85.87;98446.60;106791;1274;22539;-75
2023/09/09 07:55:51;;;;;;;14.40;10.90;;;;;;;21.63;85.61;98448.91;106661;1265;25520;-75
2023/09/09 07:58:19;;;;;;;12.30;11.10;;;;;;;21.69;84.69;98451.31;106674;1275;23720;-75
2023/09/09 08:00:58;;;;;;;15.00;11.10;;;;;;;21.75;84.76;98444.31;106755;1263;22637;-75
2023/09/09 08:03:26;;;;;;;11.10;10.00;;;;;;;21.89;84.71;98446.64;106684;1272;24208;-74
2023/09/09 08:05:56;;;;;;;10.70;9.60;;;;;;;21.99;83.92;98442.75;106747;1274;24353;-74
2023/09/09 08:08:24;;;;;;;12.30;10.10;;;;;;;22.08;83.64;98444.75;106742;1277;24317;-74
2023/09/09 08:10:52;;;;;;;12.20;10.00;;;;;;;22.15;82.37;98443.80;106755;1266;22524;-75
2023/09/09 08:13:20;;;;;;;10.40;9.30;;;;;;;22.20;82.31;98441.24;106706;1275;22537;-76
2023/09/09 08:15:48;;;;;;;12.00;10.40;;;;;;;22.27;81.24;98444.98;106748;1278;22544;-75
2023/09/09 08:18:17;;;;;;;13.10;9.90;;;;;;;22.31;81.02;98447.57;106734;1275;22550;-75
2023/09/09 08:20:52;;;;;;;11.30;9.50;;;;;;;22.36;80.83;98447.44;106780;1262;24256;-75
2023/09/09 08:23:22;;;;;;;11.10;9.30;;;;;;;22.42;80.02;98448.34;106659;1277;23889;-74
2023/09/09 08:25:50;;;;;;;10.40;9.30;;;;;;;22.51;79.48;98451.16;106750;1277;22579;-75
2023/09/09 08:28:19;;;;;;;10.80;9.20;;;;;;;22.58;79.39;98448.94;106746;1278;23365;-75
2023/09/09 08:30:47;;;;;;;11.10;9.50;;;;;;;22.65;79.25;98449.23;106651;1275;25407;-75
2023/09/09 08:33:15;;;;;;;13.30;10.30;;;;;;;22.76;78.75;98449.48;106759;1278;25284;-75
2023/09/09 08:35:44;;;;;;;13.00;9.30;;;;;;;22.85;78.80;98452.09;106701;1278;25490;-75
2023/09/09 08:38:12;;;;;;;10.80;9.70;;;;;;;22.97;78.49;98449.31;106758;1263;22646;-74
2023/09/09 08:41:00;;;;;;;12.50;10.20;;;;;;;23.05;78.16;98451.58;106695;1267;25339;-74
2023/09/09 08:43:50;;;;;;;13.00;10.40;;;;;;;23.12;77.91;98447.68;106759;1267;22640;-75
2023/09/09 08:46:21;;;;;;;10.40;9.20;;;;;;;23.21;76.41;98450.89;106725;1278;22806;-75
2023/09/09 08:48:50;;;;;;;11.40;9.90;;;;;;;23.29;76.76;98451.48;106703;1266;22557;-75
2023/09/09 08:51:28;;;;;;;11.40;10.10;;;;;;;23.38;75.90;98456.02;106701;1267;24032;-75
2023/09/09 08:53:57;;;;;;;10.70;9.50;;;;;;;23.43;75.57;98457.50;106531;1265;25438;-76
2023/09/09 08:56:25;;;;;;;11.20;9.90;;;;;;;23.50;74.56;98457.14;106778;1278;24262;-76
2023/09/09 08:58:53;;;;;;;12.40;9.70;;;;;;;23.54;74.14;98457.98;106668;1278;22521;-75
2023/09/09 09:01:22;;;;;;;9.90;8.90;;;;;;;23.63;73.65;98455.89;106749;1264;22647;-75
2023/09/09 09:03:51;;;;;;;11.10;9.00;;;;;;;23.71;72.66;98453.83;106511;1268;22531;-73
2023/09/09 09:06:19;;;;;;;11.10;9.40;;;;;;;23.78;72.57;98454.33;106632;1268;22543;-76
2023/09/09 09:08:48;;;;;;;10.90;9.80;;;;;;;23.85;72.10;98456.46;106567;1275;24245;-76
2023/09/09 09:11:20;;;;;;;15.40;12.10;;;;;;;23.91;72.48;98452.92;106639;1267;22615;-75
2023/09/09 09:13:50;;;;;;;11.50;9.00;;;;;;;24.02;72.38;98450.78;106667;1275;22613;-75
2023/09/09 09:16:18;;;;;;;13.00;8.10;;;;;;;24.11;70.97;98447.89;106677;1275;22539;-77
2023/09/09 09:18:46;;;;;;;12.50;8.90;;;;;;;24.17;70.93;98448.98;106681;1263;22659;-74
2023/09/09 09:21:14;;;;;;;11.30;7.80;;;;;;;24.24;70.44;98445.53;106667;1278;25415;-76
2023/09/09 09:23:42;;;;;;;11.20;9.20;;;;;;;24.33;70.24;98445.55;106652;1258;22525;-74
2023/09/09 09:26:24;;;;;;;9.50;8.50;;;;;;;24.42;70.09;98437.49;106776;1277;22574;-75
2023/09/09 09:28:52;;;;;;;12.30;8.30;;;;;;;24.53;69.32;98434.45;106667;1270;22527;-75
2023/09/09 09:31:24;;;;;;;10.90;8.70;;;;;;;24.59;68.68;98433.02;106686;1275;24374;-75
2023/09/09 09:33:53;;;;;;;10.40;8.80;;;;;;;24.64;69.57;98429.52;106832;1257;24333;-74
2023/09/09 09:36:23;;;;;;;9.40;7.90;;;;;;;24.70;67.81;98431.00;106754;1267;24331;-74
2023/09/09 09:38:52;;;;;;;10.40;8.60;;;;;;;24.76;67.35;98432.46;106715;1269;22523;-74
2023/09/09 09:41:22;;;;;;;12.60;8.40;;;;;;;24.86;68.01;98431.70;106735;1263;22527;-74
2023/09/09 09:43:51;;;;;;;8.60;7.80;;;;;;;25.00;68.24;98432.43;106780;1277;22538;-73
2023/09/09 09:46:21;;;;;;;13.60;8.50;;;;;;;25.07;67.11;98429.27;106706;1266;22559;-75
2023/09/09 09:48:49;;;;;;;10.30;8.30;;;;;;;25.07;66.27;98428.08;106803;1277;26095;-74
2023/09/09 09:51:17;;;;;;;10.10;8.00;;;;;;;25.13;66.83;98426.80;106731;1275;25403;-74
2023/09/09 09:53:48;;;;;;;10.70;8.20;;;;;;;25.21;66.09;98424.35;106717;1267;22541;-74
2023/09/09 09:56:17;;;;;;;8.70;7.70;;;;;;;25.26;66.55;98427.05;106743;1271;24263;-74
2023/09/09 09:58:47;;;;;;;11.40;8.00;;;;;;;25.35;66.41;98421.14;106541;1268;22518;-74
2023/09/09 10:01:16;;;;;;;15.20;8.30;;;;;;;25.49;66.27;98414.04;106727;1266;22539;-75
2023/09/09 10:03:51;;;;;;;12.50;8.90;;;;;;;25.61;65.54;98417.19;106605;1275;25233;-75
2023/09/09 10:06:27;;;;;;;10.90;8.40;;;;;;;25.70;65.32;98416.77;106788;1268;23038;-75
2023/09/09 10:09:10;;;;;;;9.40;7.90;;;;;;;25.73;63.89;98417.40;106702;1270;22531;-75
2023/09/09 10:11:54;;;;;;;10.90;8.00;;;;;;;25.76;64.03;98414.02;106751;1267;22542;-75
2023/09/09 10:14:25;;;;;;;10.50;7.60;;;;;;;25.89;64.67;98414.27;106657;1268;22530;-74
2023/09/09 10:16:55;;;;;;;11.60;7.70;;;;;;;26.04;63.94;98416.86;106681;1268;22555;-75
2023/09/09 10:19:25;;;;;;;8.40;7.00;;;;;;;26.08;63.25;98413.08;106673;1275;22761;-74
2023/09/09 10:21:56;;;;;;;9.20;7.60;;;;;;;26.11;62.78;98410.64;106688;1270;22696;-74
2023/09/09 10:24:26;;;;;;;9.30;7.50;;;;;;;26.16;62.04;98410.51;106655;1275;22578;-74
2023/09/09 10:26:56;;;;;;;11.30;7.30;;;;;;;26.25;62.05;98407.67;106639;1263;23798;-73
2023/09/09 10:29:26;;;;;;;9.80;8.10;;;;;;;26.36;62.28;98411.65;106702;1278;22616;-73
2023/09/09 10:31:56;;;;;;;11.50;7.40;;;;;;;26.43;60.87;98409.61;106722;1263;24272;-74
2023/09/09 10:34:25;;;;;;;9.10;7.80;;;;;;;26.42;61.16;98412.84;106651;1268;22661;-74
2023/09/09 10:36:54;;;;;;;9.30;7.90;;;;;;;26.50;60.88;98410.21;106689;1275;24292;-75
2023/09/09 10:39:31;;;;;;;10.60;8.00;;;;;;;26.62;60.88;98407.30;106641;1269;26490;-74
2023/09/09 10:42:00;;;;;;;9.90;7.40;;;;;;;26.67;60.19;98407.70;106777;1264;22546;-75
2023/09/09 10:44:29;;;;;;;10.30;7.60;;;;;;;26.71;59.80;98407.63;106770;1273;22585;-76
2023/09/09 10:46:57;;;;;;;10.30;7.80;;;;;;;26.76;60.22;98408.02;106903;1266;25368;-77
2023/09/09 10:49:27;;;;;;;9.80;6.80;;;;;;;26.81;59.36;98410.48;107514;1256;22806;-76
2023/09/09 10:51:56;;;;;;;10.50;7.40;;;;;;;26.85;58.45;98413.54;106734;1273;22538;-76
2023/09/09 10:54:26;;;;;;;12.80;7.40;;;;;;;26.89;58.86;98411.58;106803;1268;22523;-74
2023/09/09 10:56:59;;;;;;;10.40;7.20;;;;;;;27.03;58.53;98405.72;106830;1263;22780;-74
2023/09/09 10:59:31;;;;;;;10.10;7.40;;;;;;;27.16;58.48;98404.86;106809;1263;24259;-74
2023/09/09 11:02:18;;;;;;;16.10;7.00;;;;;;;27.24;58.27;98400.51;106707;1268;24220;-74
2023/09/09 11:05:13;;;;;;;9.00;7.50;;;;;;;27.28;57.34;98402.73;106906;1263;23064;-75
2023/09/09 11:07:42;;;;;;;;;;;;;;;27.29;55.73;98404.07;106848;1278;24481;-76
2023/09/09 11:10:16;;;;;;;9.50;7.30;;;;;;;27.32;57.38;98403.89;106739;1278;22624;-73
2023/09/09 11:12:57;;;;;;;9.70;7.50;;;;;;;27.47;57.02;98406.71;106563;1266;24626;-73
2023/09/09 11:15:28;;;;;;;8.20;7.20;;;;;;;27.61;56.66;98403.91;106661;1273;22526;-73
2023/09/09 11:17:58;;;;;;;13.50;8.00;;;;;;;27.76;56.57;98398.80;106675;1275;25278;-74
2023/09/09 11:20:26;;;;;;;10.00;6.70;;;;;;;27.89;56.35;98397.73;106734;1268;24237;-74
2023/09/09 11:22:55;;;;;;;9.80;8.00;;;;;;;27.97;55.06;98396.52;106630;1268;24848;-74
2023/09/09 11:25:26;;;;;;;8.70;7.20;;;;;;;28.02;54.82;98392.77;106667;1272;24385;-74